OMD152 KBYH-KOWB
Flight info
| Callsign | OMD152 |
|---|---|
| Flight time | 0h 45m |
| Altitude | 9000 |
| Route | BUMPY |
| Aircraft | B772/H-SDE2E3FGHIJ5LORVWXY/LB1D1 |
Departure
| Time | 2026-05-08 01:17 |
|---|---|
| Airport | Arkansas International Airport (KBYH) |
Arrival
| Time | 2026-05-08 02:03 |
|---|---|
| Airport | Owensboro Daviess County Airport (KOWB) |
| Time | Latitude | Longitude | Altitude | Speed | Heading |
|---|---|---|---|---|---|
| 2026-05-08 00:56 | 35.95505 | -89.95013 | 264 ft | 0 kts | 76° |
| 2026-05-08 01:10 | 35.95505 | -89.95012 | 265 ft | 0 kts | 76° |
| 2026-05-08 01:10 | 35.95506 | -89.95010 | 265 ft | 0 kts | 76° |
| 2026-05-08 01:10 | 35.95516 | -89.94995 | 266 ft | 4 kts | 40° |
| 2026-05-08 01:11 | 35.95614 | -89.94894 | 265 ft | 26 kts | 40° |
| 2026-05-08 01:11 | 35.95744 | -89.94759 | 266 ft | 24 kts | 28° |
| 2026-05-08 01:11 | 35.95911 | -89.94717 | 265 ft | 24 kts | 14° |
| 2026-05-08 01:11 | 35.96077 | -89.94690 | 264 ft | 24 kts | 2° |
| 2026-05-08 01:12 | 35.96245 | -89.94692 | 264 ft | 24 kts | 359° |
| 2026-05-08 01:12 | 35.96413 | -89.94692 | 264 ft | 24 kts | 1° |
| 2026-05-08 01:12 | 35.96581 | -89.94693 | 264 ft | 24 kts | 359° |
| 2026-05-08 01:12 | 35.96749 | -89.94694 | 264 ft | 24 kts | 0° |
| 2026-05-08 01:13 | 35.96862 | -89.94694 | 264 ft | 24 kts | 0° |
| 2026-05-08 01:13 | 35.97084 | -89.94693 | 264 ft | 24 kts | 0° |
| 2026-05-08 01:13 | 35.97196 | -89.94693 | 264 ft | 24 kts | 0° |
| 2026-05-08 01:13 | 35.97363 | -89.94692 | 264 ft | 24 kts | 0° |
| 2026-05-08 01:14 | 35.97542 | -89.94691 | 264 ft | 27 kts | 0° |
| 2026-05-08 01:14 | 35.97723 | -89.94692 | 264 ft | 25 kts | 0° |
| 2026-05-08 01:14 | 35.97865 | -89.94690 | 263 ft | 11 kts | 0° |
| 2026-05-08 01:14 | 35.97945 | -89.94689 | 263 ft | 12 kts | 1° |
| 2026-05-08 01:15 | 35.98032 | -89.94677 | 263 ft | 13 kts | 14° |
| 2026-05-08 01:15 | 35.98087 | -89.94599 | 263 ft | 9 kts | 84° |
| 2026-05-08 01:15 | 35.98085 | -89.94579 | 263 ft | 0 kts | 99° |
| 2026-05-08 01:16 | 35.98073 | -89.94543 | 263 ft | 10 kts | 123° |
| 2026-05-08 01:16 | 35.98025 | -89.94476 | 264 ft | 11 kts | 123° |
| 2026-05-08 01:16 | 35.97987 | -89.94401 | 263 ft | 5 kts | 152° |
| 2026-05-08 01:17 | 35.97976 | -89.94400 | 263 ft | 0 kts | 175° |
| 2026-05-08 01:17 | 35.97874 | -89.94398 | 262 ft | 56 kts | 181° |
| 2026-05-08 01:17 | 35.97125 | -89.94388 | 277 ft | 154 kts | 177° |
| 2026-05-08 01:17 | 35.95910 | -89.94360 | 993 ft | 179 kts | 178° |
| 2026-05-08 01:18 | 35.94688 | -89.94263 | 1899 ft | 175 kts | 166° |
| 2026-05-08 01:18 | 35.93666 | -89.93312 | 2342 ft | 207 kts | 118° |
| 2026-05-08 01:18 | 35.93446 | -89.91503 | 3112 ft | 230 kts | 80° |
| 2026-05-08 01:18 | 35.94257 | -89.89688 | 3588 ft | 251 kts | 42° |
| 2026-05-08 01:19 | 35.95771 | -89.88713 | 3929 ft | 253 kts | 9° |
| 2026-05-08 01:19 | 35.97508 | -89.88913 | 4218 ft | 249 kts | 345° |
| 2026-05-08 01:19 | 35.99225 | -89.89008 | 4308 ft | 257 kts | 17° |
| 2026-05-08 01:19 | 36.00684 | -89.87779 | 4788 ft | 253 kts | 50° |
| 2026-05-08 01:20 | 36.01637 | -89.86034 | 5296 ft | 240 kts | 58° |
| 2026-05-08 01:20 | 36.02494 | -89.84310 | 5794 ft | 232 kts | 56° |
| 2026-05-08 01:20 | 36.03385 | -89.82647 | 6168 ft | 232 kts | 53° |
| 2026-05-08 01:20 | 36.04327 | -89.81027 | 6512 ft | 233 kts | 51° |
| 2026-05-08 01:21 | 36.05320 | -89.79429 | 6827 ft | 235 kts | 49° |
| 2026-05-08 01:21 | 36.06353 | -89.77850 | 7133 ft | 237 kts | 47° |
| 2026-05-08 01:21 | 36.07417 | -89.76284 | 7443 ft | 238 kts | 45° |
| 2026-05-08 01:21 | 36.08504 | -89.74730 | 7742 ft | 240 kts | 44° |
| 2026-05-08 01:22 | 36.09613 | -89.73178 | 8060 ft | 242 kts | 43° |
| 2026-05-08 01:22 | 36.10743 | -89.71622 | 8367 ft | 244 kts | 43° |
| 2026-05-08 01:22 | 36.11889 | -89.70063 | 8685 ft | 246 kts | 42° |
| 2026-05-08 01:22 | 36.13047 | -89.68500 | 8914 ft | 249 kts | 41° |
| 2026-05-08 01:23 | 36.14223 | -89.66924 | 8964 ft | 249 kts | 41° |
| 2026-05-08 01:23 | 36.15396 | -89.65355 | 9002 ft | 248 kts | 41° |
| 2026-05-08 01:23 | 36.16571 | -89.63788 | 9006 ft | 248 kts | 41° |
| 2026-05-08 01:23 | 36.17743 | -89.62228 | 9006 ft | 248 kts | 41° |
| 2026-05-08 01:24 | 36.18918 | -89.60668 | 9010 ft | 248 kts | 41° |
| 2026-05-08 01:24 | 36.20091 | -89.59111 | 9006 ft | 248 kts | 41° |
| 2026-05-08 01:24 | 36.21251 | -89.57572 | 9005 ft | 247 kts | 40° |
| 2026-05-08 01:24 | 36.22439 | -89.55996 | 9012 ft | 247 kts | 41° |
| 2026-05-08 01:25 | 36.23600 | -89.54456 | 9005 ft | 247 kts | 41° |
| 2026-05-08 01:25 | 36.24788 | -89.52879 | 9004 ft | 248 kts | 41° |
| 2026-05-08 01:25 | 36.25952 | -89.51334 | 9009 ft | 248 kts | 41° |
| 2026-05-08 01:25 | 36.27124 | -89.49779 | 9006 ft | 248 kts | 41° |
| 2026-05-08 01:26 | 36.28302 | -89.48214 | 9006 ft | 248 kts | 41° |
| 2026-05-08 01:26 | 36.29479 | -89.46650 | 9006 ft | 248 kts | 41° |
| 2026-05-08 01:26 | 36.30655 | -89.45088 | 9004 ft | 248 kts | 41° |
| 2026-05-08 01:26 | 36.31828 | -89.43528 | 9002 ft | 248 kts | 41° |
| 2026-05-08 01:27 | 36.33003 | -89.41965 | 9005 ft | 248 kts | 41° |
| 2026-05-08 01:27 | 36.34180 | -89.40399 | 9002 ft | 248 kts | 41° |
| 2026-05-08 01:27 | 36.35357 | -89.38831 | 9002 ft | 249 kts | 41° |
| 2026-05-08 01:27 | 36.36609 | -89.37176 | 9030 ft | 278 kts | 41° |
| 2026-05-08 01:28 | 36.37971 | -89.35371 | 9014 ft | 289 kts | 42° |
| 2026-05-08 01:28 | 36.39340 | -89.33542 | 9011 ft | 291 kts | 42° |
| 2026-05-08 01:28 | 36.40722 | -89.31693 | 9006 ft | 294 kts | 42° |
| 2026-05-08 01:28 | 36.42116 | -89.29826 | 8994 ft | 293 kts | 42° |
| 2026-05-08 01:29 | 36.43504 | -89.27967 | 8996 ft | 293 kts | 42° |
| 2026-05-08 01:29 | 36.44892 | -89.26109 | 8994 ft | 293 kts | 42° |
| 2026-05-08 01:29 | 36.46277 | -89.24255 | 8999 ft | 293 kts | 42° |
| 2026-05-08 01:29 | 36.47664 | -89.22398 | 8997 ft | 293 kts | 42° |
| 2026-05-08 01:30 | 36.49053 | -89.20538 | 8993 ft | 293 kts | 42° |
| 2026-05-08 01:30 | 36.50424 | -89.18702 | 8993 ft | 293 kts | 42° |
| 2026-05-08 01:30 | 36.51806 | -89.16849 | 8995 ft | 293 kts | 42° |
| 2026-05-08 01:30 | 36.53190 | -89.14994 | 8990 ft | 293 kts | 42° |
| 2026-05-08 01:31 | 36.54562 | -89.13111 | 8998 ft | 293 kts | 44° |
| 2026-05-08 01:31 | 36.55849 | -89.11140 | 9002 ft | 294 kts | 47° |
| 2026-05-08 01:31 | 36.57110 | -89.09128 | 9000 ft | 295 kts | 47° |
| 2026-05-08 01:31 | 36.58362 | -89.07110 | 8998 ft | 295 kts | 47° |
| 2026-05-08 01:32 | 36.59613 | -89.05093 | 8996 ft | 295 kts | 47° |
| 2026-05-08 01:32 | 36.60867 | -89.03074 | 8986 ft | 294 kts | 47° |
| 2026-05-08 01:32 | 36.62120 | -89.01058 | 9000 ft | 294 kts | 47° |
| 2026-05-08 01:32 | 36.63372 | -88.99048 | 8988 ft | 294 kts | 47° |
| 2026-05-08 01:33 | 36.64623 | -88.97041 | 9003 ft | 293 kts | 47° |
| 2026-05-08 01:33 | 36.65870 | -88.95039 | 9005 ft | 293 kts | 47° |
| 2026-05-08 01:33 | 36.67123 | -88.93028 | 9002 ft | 293 kts | 47° |
| 2026-05-08 01:33 | 36.68369 | -88.91029 | 8988 ft | 293 kts | 47° |
| 2026-05-08 01:34 | 36.69615 | -88.89029 | 9006 ft | 292 kts | 47° |
| 2026-05-08 01:34 | 36.70862 | -88.87027 | 8993 ft | 292 kts | 47° |
| 2026-05-08 01:34 | 36.72106 | -88.85029 | 9000 ft | 292 kts | 47° |
| 2026-05-08 01:34 | 36.73350 | -88.83029 | 9010 ft | 291 kts | 47° |
| 2026-05-08 01:35 | 36.74595 | -88.81027 | 8990 ft | 292 kts | 47° |
| 2026-05-08 01:35 | 36.75835 | -88.79033 | 9001 ft | 291 kts | 47° |
| 2026-05-08 01:35 | 36.77076 | -88.77035 | 9007 ft | 291 kts | 47° |
| 2026-05-08 01:35 | 36.78313 | -88.75043 | 8989 ft | 291 kts | 47° |
| 2026-05-08 01:36 | 36.79553 | -88.73043 | 8989 ft | 291 kts | 47° |
| 2026-05-08 01:36 | 36.80791 | -88.71047 | 8991 ft | 291 kts | 47° |
| 2026-05-08 01:36 | 36.82030 | -88.69048 | 9003 ft | 291 kts | 47° |
| 2026-05-08 01:36 | 36.83265 | -88.67054 | 8990 ft | 291 kts | 47° |
| 2026-05-08 01:37 | 36.84489 | -88.65077 | 8994 ft | 291 kts | 47° |
| 2026-05-08 01:37 | 36.85741 | -88.63053 | 8993 ft | 291 kts | 47° |
| 2026-05-08 01:37 | 36.86961 | -88.61081 | 8996 ft | 291 kts | 47° |
| 2026-05-08 01:37 | 36.88195 | -88.59084 | 8991 ft | 291 kts | 47° |
| 2026-05-08 01:38 | 36.89430 | -88.57084 | 8989 ft | 290 kts | 47° |
| 2026-05-08 01:38 | 36.90661 | -88.55089 | 8991 ft | 290 kts | 47° |
| 2026-05-08 01:38 | 36.91896 | -88.53087 | 8989 ft | 291 kts | 47° |
| 2026-05-08 01:38 | 36.93129 | -88.51087 | 8992 ft | 290 kts | 47° |
| 2026-05-08 01:39 | 36.94361 | -88.49087 | 8988 ft | 290 kts | 47° |
| 2026-05-08 01:39 | 36.95596 | -88.47081 | 8989 ft | 290 kts | 47° |
| 2026-05-08 01:39 | 36.96824 | -88.45086 | 8989 ft | 289 kts | 47° |
| 2026-05-08 01:39 | 36.98040 | -88.43106 | 8998 ft | 286 kts | 47° |
| 2026-05-08 01:40 | 36.99260 | -88.41121 | 9119 ft | 289 kts | 47° |
| 2026-05-08 01:40 | 37.00495 | -88.39113 | 9366 ft | 292 kts | 47° |
| 2026-05-08 01:40 | 37.01736 | -88.37092 | 9448 ft | 293 kts | 47° |
| 2026-05-08 01:40 | 37.02979 | -88.35066 | 9490 ft | 293 kts | 47° |
| 2026-05-08 01:41 | 37.04221 | -88.33040 | 9489 ft | 293 kts | 47° |
| 2026-05-08 01:41 | 37.05460 | -88.31017 | 9496 ft | 293 kts | 47° |
| 2026-05-08 01:41 | 37.06696 | -88.28998 | 9494 ft | 293 kts | 47° |
| 2026-05-08 01:41 | 37.07935 | -88.26974 | 9502 ft | 293 kts | 47° |
| 2026-05-08 01:42 | 37.09177 | -88.24944 | 9508 ft | 293 kts | 47° |
| 2026-05-08 01:42 | 37.10418 | -88.22914 | 9504 ft | 293 kts | 47° |
| 2026-05-08 01:42 | 37.11657 | -88.20885 | 9500 ft | 293 kts | 47° |
| 2026-05-08 01:42 | 37.12897 | -88.18853 | 9506 ft | 293 kts | 47° |
| 2026-05-08 01:43 | 37.14134 | -88.16827 | 9502 ft | 293 kts | 47° |
| 2026-05-08 01:43 | 37.15370 | -88.14800 | 9502 ft | 292 kts | 47° |
| 2026-05-08 01:43 | 37.16602 | -88.12777 | 9506 ft | 292 kts | 47° |
| 2026-05-08 01:43 | 37.17837 | -88.10751 | 9508 ft | 292 kts | 47° |
| 2026-05-08 01:44 | 37.19051 | -88.08756 | 9507 ft | 292 kts | 47° |
| 2026-05-08 01:44 | 37.20295 | -88.06711 | 9515 ft | 292 kts | 47° |
| 2026-05-08 01:44 | 37.21512 | -88.04708 | 9516 ft | 292 kts | 47° |
| 2026-05-08 01:44 | 37.22744 | -88.02681 | 9518 ft | 292 kts | 47° |
| 2026-05-08 01:45 | 37.23973 | -88.00656 | 9515 ft | 292 kts | 47° |
| 2026-05-08 01:45 | 37.25203 | -87.98629 | 9518 ft | 292 kts | 47° |
| 2026-05-08 01:45 | 37.26432 | -87.96603 | 9512 ft | 291 kts | 47° |
| 2026-05-08 01:45 | 37.27659 | -87.94579 | 9507 ft | 291 kts | 47° |
| 2026-05-08 01:46 | 37.28882 | -87.92558 | 9517 ft | 291 kts | 47° |
| 2026-05-08 01:46 | 37.30108 | -87.90534 | 9516 ft | 291 kts | 47° |
| 2026-05-08 01:46 | 37.31334 | -87.88509 | 9517 ft | 291 kts | 47° |
| 2026-05-08 01:46 | 37.32555 | -87.86489 | 9509 ft | 291 kts | 47° |
| 2026-05-08 01:47 | 37.33777 | -87.84468 | 9507 ft | 290 kts | 47° |
| 2026-05-08 01:47 | 37.35000 | -87.82440 | 9515 ft | 290 kts | 47° |
| 2026-05-08 01:47 | 37.36217 | -87.80424 | 9507 ft | 290 kts | 47° |
| 2026-05-08 01:48 | 37.38348 | -87.76890 | 9513 ft | 290 kts | 47° |
| 2026-05-08 01:48 | 37.39568 | -87.74865 | 9508 ft | 290 kts | 47° |
| 2026-05-08 01:48 | 37.40783 | -87.72849 | 9504 ft | 290 kts | 47° |
| 2026-05-08 01:48 | 37.42001 | -87.70824 | 9506 ft | 290 kts | 47° |
| 2026-05-08 01:49 | 37.43219 | -87.68799 | 9505 ft | 290 kts | 47° |
| 2026-05-08 01:49 | 37.44433 | -87.66779 | 9499 ft | 290 kts | 47° |
| 2026-05-08 01:49 | 37.45641 | -87.64764 | 9495 ft | 280 kts | 47° |
| 2026-05-08 01:49 | 37.46760 | -87.62886 | 9482 ft | 258 kts | 47° |
| 2026-05-08 01:50 | 37.47809 | -87.61129 | 9489 ft | 246 kts | 47° |
| 2026-05-08 01:50 | 37.48816 | -87.59449 | 9496 ft | 242 kts | 46° |
| 2026-05-08 01:50 | 37.49794 | -87.57682 | 9499 ft | 247 kts | 59° |
| 2026-05-08 01:50 | 37.50137 | -87.55516 | 9503 ft | 262 kts | 90° |
| 2026-05-08 01:51 | 37.49612 | -87.53339 | 9512 ft | 268 kts | 118° |
| 2026-05-08 01:51 | 37.48574 | -87.51370 | 9515 ft | 271 kts | 125° |
| 2026-05-08 01:51 | 37.47454 | -87.49456 | 9514 ft | 271 kts | 126° |
| 2026-05-08 01:51 | 37.46330 | -87.47557 | 9505 ft | 271 kts | 126° |
| 2026-05-08 01:52 | 37.45346 | -87.45586 | 9486 ft | 263 kts | 107° |
| 2026-05-08 01:52 | 37.45039 | -87.43354 | 9509 ft | 258 kts | 89° |
| 2026-05-08 01:52 | 37.44981 | -87.41093 | 9533 ft | 257 kts | 86° |
| 2026-05-08 01:52 | 37.44952 | -87.38834 | 9518 ft | 259 kts | 86° |
| 2026-05-08 01:53 | 37.44928 | -87.36566 | 9507 ft | 259 kts | 86° |
| 2026-05-08 01:53 | 37.44907 | -87.34301 | 9507 ft | 259 kts | 86° |
| 2026-05-08 01:53 | 37.44888 | -87.32033 | 9504 ft | 259 kts | 86° |
| 2026-05-08 01:53 | 37.44871 | -87.29765 | 9502 ft | 259 kts | 86° |
| 2026-05-08 01:54 | 37.44855 | -87.27496 | 9502 ft | 259 kts | 86° |
| 2026-05-08 01:54 | 37.44839 | -87.25231 | 9504 ft | 255 kts | 86° |
| 2026-05-08 01:54 | 37.44907 | -87.23115 | 9489 ft | 230 kts | 71° |
| 2026-05-08 01:54 | 37.45625 | -87.21476 | 9499 ft | 205 kts | 35° |
| 2026-05-08 01:55 | 37.46655 | -87.20334 | 9507 ft | 198 kts | 38° |
| 2026-05-08 01:55 | 37.47571 | -87.19060 | 9649 ft | 192 kts | 39° |
| 2026-05-08 01:55 | 37.48544 | -87.17912 | 9795 ft | 191 kts | 31° |
| 2026-05-08 01:55 | 37.49593 | -87.16919 | 9381 ft | 186 kts | 28° |
| 2026-05-08 01:56 | 37.50703 | -87.16152 | 8762 ft | 181 kts | 13° |
| 2026-05-08 01:56 | 37.51926 | -87.15815 | 8025 ft | 182 kts | 2° |
| 2026-05-08 01:56 | 37.53182 | -87.15702 | 7420 ft | 179 kts | 357° |
| 2026-05-08 01:56 | 37.54417 | -87.15697 | 6852 ft | 176 kts | 355° |
| 2026-05-08 01:57 | 37.55641 | -87.15713 | 6299 ft | 177 kts | 354° |
| 2026-05-08 01:57 | 37.56870 | -87.15759 | 5764 ft | 175 kts | 354° |
| 2026-05-08 01:57 | 37.58072 | -87.15857 | 5247 ft | 172 kts | 352° |
| 2026-05-08 01:57 | 37.59270 | -87.16032 | 4633 ft | 177 kts | 349° |
| 2026-05-08 01:58 | 37.60492 | -87.16290 | 4123 ft | 175 kts | 351° |
| 2026-05-08 01:58 | 37.61692 | -87.16350 | 3599 ft | 177 kts | 359° |
| 2026-05-08 01:58 | 37.62939 | -87.16327 | 3100 ft | 176 kts | 360° |
| 2026-05-08 01:58 | 37.64192 | -87.16331 | 2800 ft | 187 kts | 358° |
| 2026-05-08 01:59 | 37.65549 | -87.16372 | 2513 ft | 204 kts | 358° |
| 2026-05-08 01:59 | 37.66965 | -87.16409 | 2185 ft | 198 kts | 357° |
| 2026-05-08 01:59 | 37.68268 | -87.16502 | 1920 ft | 184 kts | 355° |
| 2026-05-08 01:59 | 37.69538 | -87.16565 | 1547 ft | 188 kts | 357° |
| 2026-05-08 02:00 | 37.70918 | -87.16589 | 1348 ft | 201 kts | 359° |
| 2026-05-08 02:00 | 37.72257 | -87.16618 | 1321 ft | 194 kts | 358° |
| 2026-05-08 02:00 | 37.73612 | -87.16813 | 1339 ft | 200 kts | 333° |
| 2026-05-08 02:00 | 37.74438 | -87.18178 | 1403 ft | 202 kts | 279° |
| 2026-05-08 02:01 | 37.74056 | -87.19745 | 1490 ft | 190 kts | 222° |
| 2026-05-08 02:01 | 37.73259 | -87.20185 | 1544 ft | 187 kts | 183° |
| 2026-05-08 02:01 | 37.71630 | -87.19678 | 1395 ft | 167 kts | 163° |
| 2026-05-08 02:01 | 37.70941 | -87.19413 | 1334 ft | 142 kts | 152° |
| 2026-05-08 02:02 | 37.70535 | -87.18306 | 1357 ft | 150 kts | 87° |
| 2026-05-08 02:02 | 37.70945 | -87.17159 | 1572 ft | 148 kts | 41° |
| 2026-05-08 02:02 | 37.71902 | -87.16720 | 1039 ft | 146 kts | 4° |
| 2026-05-08 02:02 | 37.72885 | -87.16685 | 517 ft | 135 kts | 358° |
| 2026-05-08 02:03 | 37.73728 | -87.16726 | 410 ft | 105 kts | 359° |
| 2026-05-08 02:03 | 37.74278 | -87.16749 | 414 ft | 53 kts | 358° |
| 2026-05-08 02:03 | 37.74583 | -87.16766 | 415 ft | 33 kts | 358° |
| 2026-05-08 02:03 | 37.74789 | -87.16777 | 414 ft | 21 kts | 358° |
| 2026-05-08 02:04 | 37.74879 | -87.16711 | 413 ft | 13 kts | 72° |
| 2026-05-08 02:04 | 37.74888 | -87.16598 | 419 ft | 13 kts | 93° |
| 2026-05-08 02:04 | 37.74828 | -87.16525 | 413 ft | 13 kts | 173° |
| 2026-05-08 02:04 | 37.74732 | -87.16516 | 414 ft | 14 kts | 179° |
| 2026-05-08 02:05 | 37.74629 | -87.16513 | 414 ft | 15 kts | 179° |
| 2026-05-08 02:05 | 37.74523 | -87.16506 | 413 ft | 15 kts | 176° |
| 2026-05-08 02:05 | 37.74414 | -87.16502 | 413 ft | 15 kts | 179° |
| 2026-05-08 02:05 | 37.74306 | -87.16529 | 411 ft | 16 kts | 200° |
| 2026-05-08 02:06 | 37.74197 | -87.16561 | 412 ft | 16 kts | 179° |
| 2026-05-08 02:06 | 37.74087 | -87.16557 | 413 ft | 16 kts | 178° |
| 2026-05-08 02:06 | 37.73972 | -87.16549 | 412 ft | 17 kts | 176° |
| 2026-05-08 02:06 | 37.73900 | -87.16521 | 410 ft | 19 kts | 135° |
| 2026-05-08 02:07 | 37.73859 | -87.16383 | 411 ft | 0 kts | 98° |